sensor_id;sensor_type;location;lat;lon;timestamp;P1;durP1;ratioP1;P2;durP2;ratioP2
24425;SDS011;12611;44.446;26.000;2023-04-03T00:01:30;18.20;;;10.57;;
24425;SDS011;12611;44.446;26.000;2023-04-03T00:03:58;18.90;;;10.03;;
24425;SDS011;12611;44.446;26.000;2023-04-03T00:06:27;18.07;;;10.57;;
24425;SDS011;12611;44.446;26.000;2023-04-03T00:08:55;14.83;;;9.87;;
24425;SDS011;12611;44.446;26.000;2023-04-03T00:11:24;16.93;;;9.80;;
24425;SDS011;12611;44.446;26.000;2023-04-03T00:13:53;17.63;;;12.30;;
24425;SDS011;12611;44.446;26.000;2023-04-03T00:16:22;18.33;;;13.30;;
24425;SDS011;12611;44.446;26.000;2023-04-03T00:18:50;19.63;;;12.10;;
24425;SDS011;12611;44.446;26.000;2023-04-03T00:21:18;19.27;;;12.40;;
24425;SDS011;12611;44.446;26.000;2023-04-03T00:23:47;19.07;;;12.33;;
24425;SDS011;12611;44.446;26.000;2023-04-03T00:26:15;17.77;;;11.93;;
24425;SDS011;12611;44.446;26.000;2023-04-03T00:28:43;16.93;;;11.10;;
24425;SDS011;12611;44.446;26.000;2023-04-03T00:31:15;14.03;;;10.40;;
24425;SDS011;12611;44.446;26.000;2023-04-03T00:33:43;17.70;;;11.10;;
24425;SDS011;12611;44.446;26.000;2023-04-03T00:36:12;16.63;;;11.40;;
24425;SDS011;12611;44.446;26.000;2023-04-03T00:38:41;15.80;;;11.00;;
24425;SDS011;12611;44.446;26.000;2023-04-03T00:41:09;17.23;;;10.87;;
24425;SDS011;12611;44.446;26.000;2023-04-03T00:43:37;17.20;;;10.77;;
24425;SDS011;12611;44.446;26.000;2023-04-03T00:46:06;15.53;;;10.40;;
24425;SDS011;12611;44.446;26.000;2023-04-03T00:48:36;15.43;;;10.10;;
24425;SDS011;12611;44.446;26.000;2023-04-03T00:51:08;16.60;;;10.23;;
24425;SDS011;12611;44.446;26.000;2023-04-03T00:53:41;17.70;;;11.00;;
24425;SDS011;12611;44.446;26.000;2023-04-03T00:56:12;17.37;;;10.30;;
24425;SDS011;12611;44.446;26.000;2023-04-03T00:58:45;15.33;;;10.07;;
24425;SDS011;12611;44.446;26.000;2023-04-03T01:01:18;15.73;;;10.60;;
24425;SDS011;12611;44.446;26.000;2023-04-03T01:03:51;16.50;;;10.10;;
24425;SDS011;12611;44.446;26.000;2023-04-03T01:06:21;13.77;;;9.17;;
24425;SDS011;12611;44.446;26.000;2023-04-03T01:08:53;19.17;;;9.17;;
24425;SDS011;12611;44.446;26.000;2023-04-03T01:11:22;13.00;;;9.43;;
24425;SDS011;12611;44.446;26.000;2023-04-03T01:13:51;14.50;;;9.40;;
24425;SDS011;12611;44.446;26.000;2023-04-03T01:16:20;13.40;;;9.40;;
24425;SDS011;12611;44.446;26.000;2023-04-03T01:18:48;13.97;;;9.57;;
24425;SDS011;12611;44.446;26.000;2023-04-03T01:24:33;13.47;;;9.50;;
24425;SDS011;12611;44.446;26.000;2023-04-03T01:27:06;14.90;;;9.10;;
24425;SDS011;12611;44.446;26.000;2023-04-03T01:29:37;14.10;;;9.33;;
24425;SDS011;12611;44.446;26.000;2023-04-03T01:32:07;12.93;;;8.20;;
24425;SDS011;12611;44.446;26.000;2023-04-03T01:34:36;14.63;;;9.27;;
24425;SDS011;12611;44.446;26.000;2023-04-03T01:37:04;13.53;;;8.77;;
24425;SDS011;12611;44.446;26.000;2023-04-03T01:39:32;14.10;;;8.27;;
24425;SDS011;12611;44.446;26.000;2023-04-03T01:42:01;15.17;;;8.60;;
24425;SDS011;12611;44.446;26.000;2023-04-03T01:44:30;15.43;;;8.70;;
24425;SDS011;12611;44.446;26.000;2023-04-03T01:46:58;15.33;;;9.33;;
24425;SDS011;12611;44.446;26.000;2023-04-03T01:49:28;13.73;;;8.60;;
24425;SDS011;12611;44.446;26.000;2023-04-03T01:51:56;17.50;;;8.97;;
24425;SDS011;12611;44.446;26.000;2023-04-03T01:54:24;14.70;;;8.90;;
24425;SDS011;12611;44.446;26.000;2023-04-03T01:56:53;14.03;;;8.93;;
24425;SDS011;12611;44.446;26.000;2023-04-03T01:59:21;13.13;;;9.17;;
24425;SDS011;12611;44.446;26.000;2023-04-03T02:01:49;14.13;;;9.17;;
24425;SDS011;12611;44.446;26.000;2023-04-03T02:04:18;16.83;;;9.47;;
24425;SDS011;12611;44.446;26.000;2023-04-03T02:06:47;14.70;;;9.17;;
24425;SDS011;12611;44.446;26.000;2023-04-03T02:09:16;13.80;;;8.80;;
24425;SDS011;12611;44.446;26.000;2023-04-03T02:11:44;13.67;;;8.80;;
24425;SDS011;12611;44.446;26.000;2023-04-03T02:14:12;15.20;;;10.47;;
24425;SDS011;12611;44.446;26.000;2023-04-03T02:16:41;15.20;;;9.70;;
24425;SDS011;12611;44.446;26.000;2023-04-03T02:19:09;16.83;;;10.10;;
24425;SDS011;12611;44.446;26.000;2023-04-03T02:21:38;14.23;;;8.93;;
24425;SDS011;12611;44.446;26.000;2023-04-03T02:24:07;17.33;;;9.83;;
24425;SDS011;12611;44.446;26.000;2023-04-03T02:26:36;15.40;;;9.57;;
24425;SDS011;12611;44.446;26.000;2023-04-03T02:29:04;16.80;;;10.07;;
24425;SDS011;12611;44.446;26.000;2023-04-03T02:31:33;15.70;;;10.10;;
24425;SDS011;12611;44.446;26.000;2023-04-03T02:34:01;14.90;;;10.23;;
24425;SDS011;12611;44.446;26.000;2023-04-03T02:36:29;18.60;;;11.57;;
24425;SDS011;12611;44.446;26.000;2023-04-03T02:38:58;21.40;;;11.53;;
24425;SDS011;12611;44.446;26.000;2023-04-03T02:41:28;19.17;;;11.33;;
24425;SDS011;12611;44.446;26.000;2023-04-03T02:44:01;19.23;;;11.83;;
24425;SDS011;12611;44.446;26.000;2023-04-03T02:46:30;16.83;;;10.90;;
24425;SDS011;12611;44.446;26.000;2023-04-03T02:48:59;18.47;;;12.33;;
24425;SDS011;12611;44.446;26.000;2023-04-03T02:51:27;14.93;;;10.20;;
24425;SDS011;12611;44.446;26.000;2023-04-03T02:53:55;14.30;;;10.10;;
24425;SDS011;12611;44.446;26.000;2023-04-03T02:56:24;15.37;;;10.53;;
24425;SDS011;12611;44.446;26.000;2023-04-03T02:58:54;16.70;;;10.77;;
24425;SDS011;12611;44.446;26.000;2023-04-03T03:01:23;17.17;;;10.63;;
24425;SDS011;12611;44.446;26.000;2023-04-03T03:03:53;15.13;;;9.87;;
24425;SDS011;12611;44.446;26.000;2023-04-03T03:06:22;18.53;;;10.83;;
24425;SDS011;12611;44.446;26.000;2023-04-03T03:08:50;17.87;;;10.90;;
24425;SDS011;12611;44.446;26.000;2023-04-03T03:11:19;16.33;;;10.80;;
24425;SDS011;12611;44.446;26.000;2023-04-03T03:13:48;20.43;;;10.77;;
24425;SDS011;12611;44.446;26.000;2023-04-03T03:16:17;15.30;;;10.17;;
24425;SDS011;12611;44.446;26.000;2023-04-03T03:18:46;15.30;;;9.97;;
24425;SDS011;12611;44.446;26.000;2023-04-03T03:21:14;18.73;;;10.40;;
24425;SDS011;12611;44.446;26.000;2023-04-03T03:23:43;16.40;;;10.50;;
24425;SDS011;12611;44.446;26.000;2023-04-03T03:26:11;16.33;;;10.53;;
24425;SDS011;12611;44.446;26.000;2023-04-03T03:28:39;18.80;;;11.60;;
24425;SDS011;12611;44.446;26.000;2023-04-03T03:31:08;17.43;;;11.33;;
24425;SDS011;12611;44.446;26.000;2023-04-03T03:33:40;17.60;;;10.03;;
24425;SDS011;12611;44.446;26.000;2023-04-03T03:36:08;17.93;;;10.53;;
24425;SDS011;12611;44.446;26.000;2023-04-03T03:38:37;21.10;;;11.70;;
24425;SDS011;12611;44.446;26.000;2023-04-03T03:41:05;19.10;;;11.17;;
24425;SDS011;12611;44.446;26.000;2023-04-03T03:43:33;19.63;;;11.17;;
24425;SDS011;12611;44.446;26.000;2023-04-03T03:46:02;19.50;;;11.70;;
24425;SDS011;12611;44.446;26.000;2023-04-03T03:48:30;17.50;;;10.87;;
24425;SDS011;12611;44.446;26.000;2023-04-03T03:51:00;18.13;;;11.10;;
24425;SDS011;12611;44.446;26.000;2023-04-03T03:53:28;16.17;;;10.10;;
24425;SDS011;12611;44.446;26.000;2023-04-03T03:55:56;13.63;;;9.73;;
24425;SDS011;12611;44.446;26.000;2023-04-03T03:58:25;14.00;;;9.67;;
24425;SDS011;12611;44.446;26.000;2023-04-03T04:00:53;15.53;;;9.47;;
24425;SDS011;12611;44.446;26.000;2023-04-03T04:03:22;13.73;;;9.77;;
24425;SDS011;12611;44.446;26.000;2023-04-03T04:05:50;17.63;;;10.23;;
24425;SDS011;12611;44.446;26.000;2023-04-03T04:08:20;17.13;;;9.63;;
24425;SDS011;12611;44.446;26.000;2023-04-03T04:10:49;15.97;;;9.40;;
24425;SDS011;12611;44.446;26.000;2023-04-03T04:13:17;14.80;;;9.70;;
24425;SDS011;12611;44.446;26.000;2023-04-03T04:15:46;16.77;;;9.30;;
24425;SDS011;12611;44.446;26.000;2023-04-03T04:18:14;16.70;;;9.53;;
24425;SDS011;12611;44.446;26.000;2023-04-03T04:20:43;18.40;;;10.80;;
24425;SDS011;12611;44.446;26.000;2023-04-03T04:23:12;15.40;;;9.27;;
24425;SDS011;12611;44.446;26.000;2023-04-03T04:25:43;15.63;;;9.30;;
24425;SDS011;12611;44.446;26.000;2023-04-03T04:28:12;14.40;;;8.70;;
24425;SDS011;12611;44.446;26.000;2023-04-03T04:30:40;20.77;;;9.57;;
24425;SDS011;12611;44.446;26.000;2023-04-03T04:33:09;15.63;;;9.70;;
24425;SDS011;12611;44.446;26.000;2023-04-03T04:35:37;14.60;;;9.00;;
24425;SDS011;12611;44.446;26.000;2023-04-03T04:38:06;17.10;;;9.13;;
24425;SDS011;12611;44.446;26.000;2023-04-03T04:40:35;13.80;;;8.63;;
24425;SDS011;12611;44.446;26.000;2023-04-03T04:43:05;17.93;;;10.27;;
24425;SDS011;12611;44.446;26.000;2023-04-03T04:45:33;14.73;;;9.50;;
24425;SDS011;12611;44.446;26.000;2023-04-03T04:48:02;16.50;;;9.27;;
24425;SDS011;12611;44.446;26.000;2023-04-03T04:50:31;16.60;;;10.47;;
24425;SDS011;12611;44.446;26.000;2023-04-03T04:52:59;17.23;;;10.10;;
24425;SDS011;12611;44.446;26.000;2023-04-03T04:55:28;15.20;;;9.87;;
24425;SDS011;12611;44.446;26.000;2023-04-03T04:57:56;16.37;;;10.40;;
24425;SDS011;12611;44.446;26.000;2023-04-03T05:00:26;14.87;;;9.57;;
24425;SDS011;12611;44.446;26.000;2023-04-03T05:02:54;16.30;;;9.60;;
24425;SDS011;12611;44.446;26.000;2023-04-03T05:05:22;14.73;;;9.47;;
24425;SDS011;12611;44.446;26.000;2023-04-03T05:07:51;14.60;;;9.33;;
24425;SDS011;12611;44.446;26.000;2023-04-03T05:10:19;15.13;;;9.63;;
24425;SDS011;12611;44.446;26.000;2023-04-03T05:12:47;14.77;;;8.17;;
24425;SDS011;12611;44.446;26.000;2023-04-03T05:15:16;13.47;;;8.13;;
24425;SDS011;12611;44.446;26.000;2023-04-03T05:17:46;13.53;;;8.13;;
24425;SDS011;12611;44.446;26.000;2023-04-03T05:20:14;12.97;;;8.00;;
24425;SDS011;12611;44.446;26.000;2023-04-03T05:22:43;12.90;;;7.93;;
24425;SDS011;12611;44.446;26.000;2023-04-03T05:25:11;12.67;;;8.10;;
24425;SDS011;12611;44.446;26.000;2023-04-03T05:27:39;17.03;;;7.40;;
24425;SDS011;12611;44.446;26.000;2023-04-03T05:30:08;12.87;;;7.80;;
24425;SDS011;12611;44.446;26.000;2023-04-03T05:32:36;11.10;;;7.27;;
24425;SDS011;12611;44.446;26.000;2023-04-03T05:35:07;11.90;;;7.40;;
24425;SDS011;12611;44.446;26.000;2023-04-03T05:37:36;12.30;;;7.10;;
24425;SDS011;12611;44.446;26.000;2023-04-03T05:40:06;12.13;;;7.40;;
24425;SDS011;12611;44.446;26.000;2023-04-03T05:42:35;11.53;;;7.23;;
24425;SDS011;12611;44.446;26.000;2023-04-03T05:45:04;12.37;;;6.97;;
24425;SDS011;12611;44.446;26.000;2023-04-03T05:47:33;9.27;;;5.70;;
24425;SDS011;12611;44.446;26.000;2023-04-03T05:50:02;11.40;;;6.20;;
24425;SDS011;12611;44.446;26.000;2023-04-03T05:52:33;9.97;;;6.53;;
24425;SDS011;12611;44.446;26.000;2023-04-03T05:55:04;7.47;;;5.63;;
24425;SDS011;12611;44.446;26.000;2023-04-03T05:57:33;8.53;;;5.60;;
24425;SDS011;12611;44.446;26.000;2023-04-03T06:00:02;9.23;;;5.77;;
24425;SDS011;12611;44.446;26.000;2023-04-03T06:02:31;11.80;;;5.87;;
24425;SDS011;12611;44.446;26.000;2023-04-03T06:05:00;10.13;;;6.47;;
24425;SDS011;12611;44.446;26.000;2023-04-03T06:07:28;11.93;;;6.20;;
24425;SDS011;12611;44.446;26.000;2023-04-03T06:09:58;11.67;;;6.23;;
24425;SDS011;12611;44.446;26.000;2023-04-03T06:12:27;9.53;;;5.67;;
24425;SDS011;12611;44.446;26.000;2023-04-03T06:14:56;8.83;;;5.53;;
24425;SDS011;12611;44.446;26.000;2023-04-03T06:17:24;9.43;;;5.30;;
24425;SDS011;12611;44.446;26.000;2023-04-03T06:19:53;7.50;;;4.80;;
24425;SDS011;12611;44.446;26.000;2023-04-03T06:22:22;10.57;;;5.53;;
24425;SDS011;12611;44.446;26.000;2023-04-03T06:24:52;7.47;;;4.70;;
24425;SDS011;12611;44.446;26.000;2023-04-03T06:27:21;8.83;;;5.53;;
24425;SDS011;12611;44.446;26.000;2023-04-03T06:29:50;9.13;;;5.20;;
24425;SDS011;12611;44.446;26.000;2023-04-03T06:32:18;8.43;;;5.17;;
24425;SDS011;12611;44.446;26.000;2023-04-03T06:34:47;8.20;;;4.93;;
24425;SDS011;12611;44.446;26.000;2023-04-03T06:37:15;7.00;;;4.50;;
24425;SDS011;12611;44.446;26.000;2023-04-03T06:39:46;8.57;;;4.50;;
24425;SDS011;12611;44.446;26.000;2023-04-03T06:42:15;8.90;;;4.83;;
24425;SDS011;12611;44.446;26.000;2023-04-03T06:44:44;7.40;;;4.53;;
24425;SDS011;12611;44.446;26.000;2023-04-03T06:47:13;7.83;;;5.03;;
24425;SDS011;12611;44.446;26.000;2023-04-03T06:49:42;7.03;;;4.77;;
24425;SDS011;12611;44.446;26.000;2023-04-03T06:52:10;8.40;;;4.87;;
24425;SDS011;12611;44.446;26.000;2023-04-03T06:54:39;8.57;;;4.43;;
24425;SDS011;12611;44.446;26.000;2023-04-03T06:57:08;7.27;;;4.57;;
24425;SDS011;12611;44.446;26.000;2023-04-03T06:59:37;9.67;;;5.27;;
24425;SDS011;12611;44.446;26.000;2023-04-03T07:02:08;12.70;;;5.60;;
24425;SDS011;12611;44.446;26.000;2023-04-03T07:04:37;10.20;;;5.20;;
24425;SDS011;12611;44.446;26.000;2023-04-03T07:07:06;8.40;;;5.13;;
24425;SDS011;12611;44.446;26.000;2023-04-03T07:09:35;7.80;;;5.10;;
24425;SDS011;12611;44.446;26.000;2023-04-03T07:12:03;7.83;;;4.90;;
24425;SDS011;12611;44.446;26.000;2023-04-03T07:14:31;11.10;;;5.57;;
24425;SDS011;12611;44.446;26.000;2023-04-03T07:17:00;7.57;;;4.90;;
24425;SDS011;12611;44.446;26.000;2023-04-03T07:19:29;9.73;;;4.80;;
24425;SDS011;12611;44.446;26.000;2023-04-03T07:21:58;10.10;;;4.70;;
24425;SDS011;12611;44.446;26.000;2023-04-03T07:24:26;8.00;;;4.57;;
24425;SDS011;12611;44.446;26.000;2023-04-03T07:26:55;7.80;;;4.40;;
24425;SDS011;12611;44.446;26.000;2023-04-03T07:29:23;6.60;;;4.17;;
24425;SDS011;12611;44.446;26.000;2023-04-03T07:31:51;9.10;;;3.97;;
24425;SDS011;12611;44.446;26.000;2023-04-03T07:34:21;6.70;;;4.00;;
24425;SDS011;12611;44.446;26.000;2023-04-03T07:36:51;11.37;;;5.07;;
24425;SDS011;12611;44.446;26.000;2023-04-03T07:39:19;8.50;;;4.27;;
24425;SDS011;12611;44.446;26.000;2023-04-03T07:41:48;7.10;;;4.03;;
24425;SDS011;12611;44.446;26.000;2023-04-03T07:44:16;7.37;;;4.23;;
24425;SDS011;12611;44.446;26.000;2023-04-03T07:46:44;8.33;;;4.33;;
24425;SDS011;12611;44.446;26.000;2023-04-03T07:49:13;8.30;;;4.27;;
24425;SDS011;12611;44.446;26.000;2023-04-03T07:51:41;9.43;;;4.47;;
24425;SDS011;12611;44.446;26.000;2023-04-03T07:54:11;7.67;;;4.20;;
24425;SDS011;12611;44.446;26.000;2023-04-03T07:56:39;7.33;;;4.10;;
24425;SDS011;12611;44.446;26.000;2023-04-03T07:59:09;8.67;;;4.40;;
24425;SDS011;12611;44.446;26.000;2023-04-03T08:01:37;9.63;;;4.47;;
24425;SDS011;12611;44.446;26.000;2023-04-03T08:04:06;17.90;;;8.93;;
24425;SDS011;12611;44.446;26.000;2023-04-03T08:06:34;8.80;;;4.93;;
24425;SDS011;12611;44.446;26.000;2023-04-03T08:09:13;8.20;;;4.67;;
24425;SDS011;12611;44.446;26.000;2023-04-03T08:11:42;12.23;;;6.80;;
24425;SDS011;12611;44.446;26.000;2023-04-03T08:14:11;13.33;;;6.80;;
24425;SDS011;12611;44.446;26.000;2023-04-03T08:16:43;9.80;;;5.30;;
24425;SDS011;12611;44.446;26.000;2023-04-03T08:19:12;12.77;;;5.80;;
24425;SDS011;12611;44.446;26.000;2023-04-03T08:21:52;7.93;;;4.40;;
24425;SDS011;12611;44.446;26.000;2023-04-03T08:24:23;8.47;;;4.83;;
24425;SDS011;12611;44.446;26.000;2023-04-03T08:26:51;9.13;;;4.40;;
24425;SDS011;12611;44.446;26.000;2023-04-03T08:29:20;7.80;;;4.80;;
24425;SDS011;12611;44.446;26.000;2023-04-03T08:31:48;11.93;;;6.20;;
24425;SDS011;12611;44.446;26.000;2023-04-03T08:34:17;8.23;;;5.17;;
24425;SDS011;12611;44.446;26.000;2023-04-03T08:36:46;12.27;;;5.27;;
24425;SDS011;12611;44.446;26.000;2023-04-03T08:39:14;7.90;;;4.53;;
24425;SDS011;12611;44.446;26.000;2023-04-03T08:41:44;9.30;;;4.93;;
24425;SDS011;12611;44.446;26.000;2023-04-03T08:44:15;9.83;;;4.50;;
24425;SDS011;12611;44.446;26.000;2023-04-03T08:46:56;8.43;;;4.70;;
24425;SDS011;12611;44.446;26.000;2023-04-03T08:49:32;8.17;;;4.77;;
24425;SDS011;12611;44.446;26.000;2023-04-03T08:52:04;9.50;;;5.37;;
24425;SDS011;12611;44.446;26.000;2023-04-03T08:54:40;12.70;;;4.70;;
24425;SDS011;12611;44.446;26.000;2023-04-03T08:57:17;9.17;;;4.60;;
24425;SDS011;12611;44.446;26.000;2023-04-03T08:59:47;7.73;;;4.60;;
24425;SDS011;12611;44.446;26.000;2023-04-03T09:02:21;8.77;;;4.73;;
24425;SDS011;12611;44.446;26.000;2023-04-03T09:04:54;9.90;;;4.27;;
24425;SDS011;12611;44.446;26.000;2023-04-03T09:07:25;7.10;;;4.17;;
24425;SDS011;12611;44.446;26.000;2023-04-03T09:10:00;11.10;;;4.23;;
24425;SDS011;12611;44.446;26.000;2023-04-03T09:12:33;8.43;;;4.80;;
24425;SDS011;12611;44.446;26.000;2023-04-03T09:15:07;12.57;;;5.07;;
24425;SDS011;12611;44.446;26.000;2023-04-03T09:17:59;7.73;;;4.53;;
24425;SDS011;12611;44.446;26.000;2023-04-03T09:20:33;8.27;;;4.90;;
24425;SDS011;12611;44.446;26.000;2023-04-03T09:23:19;8.60;;;4.87;;
24425;SDS011;12611;44.446;26.000;2023-04-03T09:25:53;11.77;;;6.67;;
24425;SDS011;12611;44.446;26.000;2023-04-03T09:28:31;22.67;;;13.70;;
24425;SDS011;12611;44.446;26.000;2023-04-03T09:31:20;8.93;;;4.80;;
24425;SDS011;12611;44.446;26.000;2023-04-03T09:33:50;6.47;;;4.23;;
24425;SDS011;12611;44.446;26.000;2023-04-03T09:39:15;8.13;;;4.80;;
24425;SDS011;12611;44.446;26.000;2023-04-03T09:44:35;6.80;;;4.45;;
24425;SDS011;12611;44.446;26.000;2023-04-03T09:47:17;6.47;;;4.27;;
24425;SDS011;12611;44.446;26.000;2023-04-03T09:49:51;7.97;;;4.23;;
24425;SDS011;12611;44.446;26.000;2023-04-03T09:52:35;5.17;;;3.33;;
24425;SDS011;12611;44.446;26.000;2023-04-03T09:55:06;5.85;;;2.97;;
24425;SDS011;12611;44.446;26.000;2023-04-03T09:57:35;5.80;;;3.23;;
24425;SDS011;12611;44.446;26.000;2023-04-03T10:00:10;6.13;;;3.77;;
24425;SDS011;12611;44.446;26.000;2023-04-03T10:02:50;5.57;;;3.60;;
24425;SDS011;12611;44.446;26.000;2023-04-03T10:05:26;7.00;;;3.90;;
24425;SDS011;12611;44.446;26.000;2023-04-03T10:08:20;5.18;;;3.50;;
24425;SDS011;12611;44.446;26.000;2023-04-03T10:11:08;6.45;;;3.65;;
24425;SDS011;12611;44.446;26.000;2023-04-03T10:13:51;7.45;;;4.40;;
24425;SDS011;12611;44.446;26.000;2023-04-03T10:16:24;7.03;;;4.20;;
24425;SDS011;12611;44.446;26.000;2023-04-03T10:19:01;6.13;;;4.07;;
24425;SDS011;12611;44.446;26.000;2023-04-03T10:21:40;9.32;;;3.92;;
24425;SDS011;12611;44.446;26.000;2023-04-03T10:24:18;6.38;;;3.78;;
24425;SDS011;12611;44.446;26.000;2023-04-03T10:26:54;8.15;;;3.85;;
24425;SDS011;12611;44.446;26.000;2023-04-03T10:29:34;6.63;;;4.18;;
24425;SDS011;12611;44.446;26.000;2023-04-03T10:32:18;6.03;;;3.58;;
24425;SDS011;12611;44.446;26.000;2023-04-03T10:35:00;9.80;;;3.95;;
24425;SDS011;12611;44.446;26.000;2023-04-03T10:37:36;9.70;;;4.95;;
24425;SDS011;12611;44.446;26.000;2023-04-03T10:40:15;7.93;;;3.97;;
24425;SDS011;12611;44.446;26.000;2023-04-03T10:42:58;6.45;;;4.07;;
24425;SDS011;12611;44.446;26.000;2023-04-03T10:45:34;7.32;;;4.47;;
24425;SDS011;12611;44.446;26.000;2023-04-03T10:48:22;7.82;;;3.65;;
24425;SDS011;12611;44.446;26.000;2023-04-03T10:51:00;6.05;;;3.65;;
24425;SDS011;12611;44.446;26.000;2023-04-03T10:53:40;9.45;;;3.70;;
24425;SDS011;12611;44.446;26.000;2023-04-03T10:56:13;5.25;;;3.45;;
24425;SDS011;12611;44.446;26.000;2023-04-03T10:58:45;8.55;;;4.80;;
24425;SDS011;12611;44.446;26.000;2023-04-03T11:01:21;7.68;;;3.78;;
24425;SDS011;12611;44.446;26.000;2023-04-03T11:03:54;16.88;;;4.55;;
24425;SDS011;12611;44.446;26.000;2023-04-03T11:06:25;6.43;;;3.50;;
24425;SDS011;12611;44.446;26.000;2023-04-03T11:09:00;8.35;;;4.28;;
24425;SDS011;12611;44.446;26.000;2023-04-03T11:11:33;6.03;;;3.80;;
24425;SDS011;12611;44.446;26.000;2023-04-03T11:14:05;6.53;;;3.20;;
24425;SDS011;12611;44.446;26.000;2023-04-03T11:16:43;6.40;;;4.00;;
24425;SDS011;12611;44.446;26.000;2023-04-03T11:19:22;7.50;;;4.35;;
24425;SDS011;12611;44.446;26.000;2023-04-03T11:22:02;7.50;;;4.57;;
24425;SDS011;12611;44.446;26.000;2023-04-03T11:24:37;8.77;;;4.75;;
24425;SDS011;12611;44.446;26.000;2023-04-03T11:27:11;7.57;;;4.82;;
24425;SDS011;12611;44.446;26.000;2023-04-03T11:29:49;7.10;;;4.60;;
24425;SDS011;12611;44.446;26.000;2023-04-03T11:32:28;7.65;;;4.85;;
24425;SDS011;12611;44.446;26.000;2023-04-03T11:35:18;8.57;;;4.57;;
24425;SDS011;12611;44.446;26.000;2023-04-03T11:37:49;9.00;;;4.35;;
24425;SDS011;12611;44.446;26.000;2023-04-03T11:40:21;7.90;;;4.75;;
24425;SDS011;12611;44.446;26.000;2023-04-03T11:42:53;10.80;;;5.43;;
24425;SDS011;12611;44.446;26.000;2023-04-03T11:45:35;8.93;;;5.20;;
24425;SDS011;12611;44.446;26.000;2023-04-03T11:48:06;7.35;;;4.57;;
24425;SDS011;12611;44.446;26.000;2023-04-03T11:50:59;6.38;;;4.00;;
24425;SDS011;12611;44.446;26.000;2023-04-03T11:53:30;9.60;;;4.75;;
24425;SDS011;12611;44.446;26.000;2023-04-03T11:56:04;7.53;;;4.85;;
24425;SDS011;12611;44.446;26.000;2023-04-03T11:59:21;7.78;;;4.65;;
24425;SDS011;12611;44.446;26.000;2023-04-03T12:01:52;9.50;;;4.85;;
24425;SDS011;12611;44.446;26.000;2023-04-03T12:04:22;7.57;;;4.38;;
24425;SDS011;12611;44.446;26.000;2023-04-03T12:12:58;6.47;;;4.25;;
24425;SDS011;12611;44.446;26.000;2023-04-03T12:22:19;6.55;;;4.13;;
24425;SDS011;12611;44.446;26.000;2023-04-03T12:24:49;7.85;;;4.47;;
24425;SDS011;12611;44.446;26.000;2023-04-03T12:27:26;7.65;;;4.20;;
24425;SDS011;12611;44.446;26.000;2023-04-03T12:30:07;8.13;;;4.22;;
24425;SDS011;12611;44.446;26.000;2023-04-03T12:35:44;7.05;;;4.38;;
24425;SDS011;12611;44.446;26.000;2023-04-03T12:41:27;6.05;;;3.22;;
24425;SDS011;12611;44.446;26.000;2023-04-03T12:44:10;6.60;;;4.25;;
24425;SDS011;12611;44.446;26.000;2023-04-03T12:46:52;6.45;;;4.00;;
24425;SDS011;12611;44.446;26.000;2023-04-03T12:49:29;7.53;;;4.22;;
24425;SDS011;12611;44.446;26.000;2023-04-03T12:52:04;10.55;;;4.70;;
24425;SDS011;12611;44.446;26.000;2023-04-03T12:54:45;7.15;;;4.38;;
24425;SDS011;12611;44.446;26.000;2023-04-03T12:57:16;6.10;;;3.90;;
24425;SDS011;12611;44.446;26.000;2023-04-03T12:59:46;7.63;;;4.43;;
24425;SDS011;12611;44.446;26.000;2023-04-03T13:02:17;8.02;;;4.78;;
24425;SDS011;12611;44.446;26.000;2023-04-03T13:04:50;6.88;;;4.10;;
24425;SDS011;12611;44.446;26.000;2023-04-03T13:07:22;7.43;;;4.22;;
24425;SDS011;12611;44.446;26.000;2023-04-03T13:10:03;7.40;;;4.30;;
24425;SDS011;12611;44.446;26.000;2023-04-03T13:12:48;8.85;;;4.13;;
24425;SDS011;12611;44.446;26.000;2023-04-03T13:15:20;8.55;;;4.25;;
24425;SDS011;12611;44.446;26.000;2023-04-03T13:17:49;7.50;;;4.30;;
24425;SDS011;12611;44.446;26.000;2023-04-03T13:20:21;10.50;;;4.30;;
24425;SDS011;12611;44.446;26.000;2023-04-03T13:22:58;8.55;;;4.43;;
24425;SDS011;12611;44.446;26.000;2023-04-03T13:25:35;7.78;;;3.75;;
24425;SDS011;12611;44.446;26.000;2023-04-03T13:28:15;7.85;;;4.13;;
24425;SDS011;12611;44.446;26.000;2023-04-03T13:30:56;7.75;;;4.78;;
24425;SDS011;12611;44.446;26.000;2023-04-03T13:33:29;8.93;;;4.78;;
24425;SDS011;12611;44.446;26.000;2023-04-03T13:36:05;10.23;;;5.10;;
24425;SDS011;12611;44.446;26.000;2023-04-03T13:38:39;7.20;;;4.37;;
24425;SDS011;12611;44.446;26.000;2023-04-03T13:41:23;8.23;;;4.78;;
24425;SDS011;12611;44.446;26.000;2023-04-03T13:43:53;7.70;;;4.88;;
24425;SDS011;12611;44.446;26.000;2023-04-03T13:46:35;8.18;;;4.82;;
24425;SDS011;12611;44.446;26.000;2023-04-03T13:49:17;8.87;;;5.00;;
24425;SDS011;12611;44.446;26.000;2023-04-03T13:51:51;6.87;;;4.30;;
24425;SDS011;12611;44.446;26.000;2023-04-03T13:54:33;8.50;;;5.18;;
24425;SDS011;12611;44.446;26.000;2023-04-03T13:57:14;8.33;;;4.70;;
24425;SDS011;12611;44.446;26.000;2023-04-03T13:59:44;7.00;;;4.17;;
24425;SDS011;12611;44.446;26.000;2023-04-03T14:02:15;7.43;;;4.47;;
24425;SDS011;12611;44.446;26.000;2023-04-03T14:04:47;7.63;;;4.60;;
24425;SDS011;12611;44.446;26.000;2023-04-03T14:07:19;12.43;;;4.63;;
24425;SDS011;12611;44.446;26.000;2023-04-03T14:09:47;10.20;;;4.63;;
24425;SDS011;12611;44.446;26.000;2023-04-03T14:12:19;7.70;;;4.50;;
24425;SDS011;12611;44.446;26.000;2023-04-03T14:14:57;5.97;;;3.83;;
24425;SDS011;12611;44.446;26.000;2023-04-03T14:17:27;8.33;;;4.47;;
24425;SDS011;12611;44.446;26.000;2023-04-03T14:19:57;8.17;;;3.77;;
24425;SDS011;12611;44.446;26.000;2023-04-03T14:22:28;7.17;;;3.93;;
24425;SDS011;12611;44.446;26.000;2023-04-03T14:25:00;8.57;;;3.60;;
24425;SDS011;12611;44.446;26.000;2023-04-03T14:27:33;12.30;;;4.83;;
24425;SDS011;12611;44.446;26.000;2023-04-03T14:30:04;7.33;;;3.80;;
24425;SDS011;12611;44.446;26.000;2023-04-03T14:32:35;10.23;;;4.30;;
24425;SDS011;12611;44.446;26.000;2023-04-03T14:35:03;8.43;;;4.93;;
24425;SDS011;12611;44.446;26.000;2023-04-03T14:37:33;6.40;;;3.77;;
24425;SDS011;12611;44.446;26.000;2023-04-03T14:40:02;10.03;;;4.67;;
24425;SDS011;12611;44.446;26.000;2023-04-03T14:42:35;9.73;;;5.10;;
24425;SDS011;12611;44.446;26.000;2023-04-03T14:45:05;7.90;;;4.60;;
24425;SDS011;12611;44.446;26.000;2023-04-03T14:47:37;8.77;;;4.37;;
24425;SDS011;12611;44.446;26.000;2023-04-03T14:50:11;7.77;;;4.37;;
24425;SDS011;12611;44.446;26.000;2023-04-03T14:52:42;8.67;;;5.37;;
24425;SDS011;12611;44.446;26.000;2023-04-03T14:55:14;10.33;;;4.87;;
24425;SDS011;12611;44.446;26.000;2023-04-03T14:57:45;9.23;;;5.03;;
24425;SDS011;12611;44.446;26.000;2023-04-03T15:00:14;8.90;;;5.17;;
24425;SDS011;12611;44.446;26.000;2023-04-03T15:02:44;11.90;;;5.70;;
24425;SDS011;12611;44.446;26.000;2023-04-03T15:05:14;9.17;;;5.63;;
24425;SDS011;12611;44.446;26.000;2023-04-03T15:07:44;9.47;;;5.57;;
24425;SDS011;12611;44.446;26.000;2023-04-03T15:10:18;10.83;;;5.70;;
24425;SDS011;12611;44.446;26.000;2023-04-03T15:12:49;10.70;;;5.73;;
24425;SDS011;12611;44.446;26.000;2023-04-03T15:15:19;10.40;;;5.87;;
24425;SDS011;12611;44.446;26.000;2023-04-03T15:17:50;10.70;;;6.30;;
24425;SDS011;12611;44.446;26.000;2023-04-03T15:20:22;10.30;;;5.27;;